Airport View

Enter AWOS ICAO identifier for current METAR.

ex. KFNL

K8A0 251335Z AUTO 32004KT 7SM BKN004 OVC008 18/17 A2997 RMK AO2

25 Sep 2020 14:09

Frequency: 119.575

Phone: 256-891-8259

Other Area AWOS: KGAD - KCMD - K4A6 - K4A9

TAF KHSV 251120Z 2512/2612 00000KT P6SM SCT005 OVC012 TEMPO 2512/2514 5SM BR OVC009 FM251500 35006KT P6SM BKN015 OVC025 FM251900 VRB04KT P6SM SCT025 BKN035 FM260600 00000KT 4SM BR SCT008 BKN015